createdAt,value
2023-02-27T00:01:52.749Z,4.47
2023-02-27T00:04:58.279Z,4.30
2023-02-27T00:08:02.171Z,4.90
2023-02-27T00:11:07.612Z,4.87
2023-02-27T00:14:11.545Z,4.27
2023-02-27T00:17:15.367Z,4.37
2023-02-27T00:20:20.835Z,4.30
2023-02-27T00:23:24.978Z,4.63
2023-02-27T00:26:30.108Z,5.93
2023-02-27T00:29:33.928Z,5.07
2023-02-27T00:32:37.958Z,5.03
2023-02-27T00:35:41.627Z,5.40
2023-02-27T00:38:46.273Z,5.20
2023-02-27T00:41:51.368Z,4.47
2023-02-27T00:44:54.834Z,5.70
2023-02-27T00:47:58.434Z,6.17
2023-02-27T00:51:02.073Z,4.97
2023-02-27T00:54:05.794Z,5.17
2023-02-27T00:57:10.888Z,4.50
2023-02-27T01:00:15.274Z,6.40
2023-02-27T01:03:19.152Z,5.53
2023-02-27T01:06:23.504Z,4.83
2023-02-27T01:09:27.169Z,5.47
2023-02-27T01:12:32.345Z,4.70
2023-02-27T01:15:36.812Z,4.87
2023-02-27T01:18:40.946Z,5.63
2023-02-27T01:21:44.682Z,5.80
2023-02-27T01:24:51.095Z,5.47
2023-02-27T01:27:56.211Z,4.93
2023-02-27T01:30:59.888Z,4.73
2023-02-27T01:34:03.705Z,5.90
2023-02-27T01:37:08.778Z,5.07
2023-02-27T01:40:13.727Z,4.87
2023-02-27T01:43:21.715Z,5.00
2023-02-27T01:46:25.938Z,5.50
2023-02-27T01:49:34.078Z,5.57
2023-02-27T01:52:42.630Z,4.97
2023-02-27T01:55:48.151Z,4.93
2023-02-27T01:58:56.072Z,5.57
2023-02-27T02:02:03.299Z,5.87
2023-02-27T02:05:09.097Z,5.90
2023-02-27T02:08:15.476Z,6.07
2023-02-27T02:11:21.596Z,6.20
2023-02-27T02:14:27.918Z,6.43
2023-02-27T02:17:40.565Z,5.93
2023-02-27T02:21:40.584Z,6.30
2023-02-27T02:25:25.490Z,5.90
2023-02-27T02:28:57.090Z,6.90
2023-02-27T02:32:57.231Z,6.37
2023-02-27T02:36:52.689Z,6.40
2023-02-27T02:40:20.257Z,5.50
2023-02-27T02:43:29.771Z,6.80
2023-02-27T02:46:39.920Z,6.10
2023-02-27T02:49:51.101Z,5.90
2023-02-27T02:53:06.208Z,6.57
2023-02-27T02:56:19.346Z,5.53
2023-02-27T02:59:30.548Z,5.67
2023-02-27T03:02:39.075Z,5.83
2023-02-27T03:05:48.474Z,5.70
2023-02-27T03:08:57.250Z,6.20
2023-02-27T03:12:04.408Z,6.23
2023-02-27T03:15:14.072Z,5.80
2023-02-27T03:18:24.884Z,5.70
2023-02-27T03:21:33.753Z,5.63
2023-02-27T03:24:41.239Z,6.33
2023-02-27T03:27:50.236Z,5.60
2023-02-27T03:31:02.078Z,6.23
2023-02-27T03:34:14.651Z,5.60
2023-02-27T03:37:28.971Z,6.20
2023-02-27T03:40:37.157Z,5.33
2023-02-27T03:43:52.843Z,5.50
2023-02-27T03:47:01.088Z,5.10
2023-02-27T03:50:05.714Z,6.60
2023-02-27T03:53:18.620Z,7.37
2023-02-27T03:56:27.126Z,5.17
2023-02-27T03:59:33.832Z,5.10
2023-02-27T04:02:38.328Z,5.57
2023-02-27T04:05:42.495Z,6.50
2023-02-27T04:08:58.367Z,5.63
2023-02-27T04:12:19.881Z,5.87
2023-02-27T04:15:34.336Z,5.93
2023-02-27T04:18:55.705Z,5.87
2023-02-27T04:22:12.621Z,5.73
2023-02-27T04:25:33.552Z,6.00
2023-02-27T04:28:46.659Z,6.33
2023-02-27T04:31:58.825Z,6.83
2023-02-27T04:35:08.490Z,5.20
2023-02-27T04:38:19.092Z,5.63
2023-02-27T04:41:26.714Z,4.80
2023-02-27T04:44:34.724Z,5.73
2023-02-27T04:47:46.309Z,3.80
2023-02-27T04:50:55.574Z,2.87
2023-02-27T04:54:03.499Z,2.43
2023-02-27T04:57:12.323Z,1.43
2023-02-27T05:00:18.378Z,1.50
2023-02-27T05:03:28.226Z,1.17
2023-02-27T05:06:35.579Z,0.77
2023-02-27T05:09:45.128Z,1.00
2023-02-27T05:12:53.786Z,1.77
2023-02-27T05:16:05.459Z,1.33
2023-02-27T05:19:11.636Z,1.37
2023-02-27T05:22:28.313Z,1.00
2023-02-27T05:25:38.947Z,1.07
2023-02-27T05:28:53.185Z,1.47
2023-02-27T05:32:06.018Z,1.70
2023-02-27T05:35:18.593Z,1.57
2023-02-27T05:38:27.968Z,2.27
2023-02-27T05:41:34.931Z,2.60
2023-02-27T05:44:43.777Z,2.40
2023-02-27T05:47:53.855Z,1.80
2023-02-27T05:51:00.564Z,2.20
2023-02-27T05:54:11.817Z,1.50
2023-02-27T05:57:22.752Z,2.10
2023-02-27T06:00:35.097Z,2.90
2023-02-27T06:03:41.176Z,4.30
2023-02-27T06:06:46.636Z,4.60
2023-02-27T06:09:51.958Z,3.03
2023-02-27T06:12:55.818Z,3.33
2023-02-27T06:15:59.807Z,3.60
2023-02-27T06:19:05.044Z,5.97
2023-02-27T06:22:11.198Z,4.83
2023-02-27T06:25:15.074Z,5.03
2023-02-27T06:28:19.189Z,3.47
2023-02-27T06:31:23.165Z,3.37
2023-02-27T06:34:27.262Z,3.37
2023-02-27T06:37:32.446Z,2.73
2023-02-27T06:40:36.420Z,3.40
2023-02-27T06:43:40.250Z,3.47
2023-02-27T06:46:44.306Z,3.37
2023-02-27T06:49:48.293Z,5.03
2023-02-27T06:52:53.594Z,8.83
2023-02-27T06:55:57.825Z,7.00
2023-02-27T06:59:01.688Z,5.67
2023-02-27T07:02:05.485Z,4.83
2023-02-27T07:05:11.472Z,5.30
2023-02-27T07:08:18.020Z,4.20
2023-02-27T07:11:21.894Z,3.50
2023-02-27T07:14:25.912Z,3.40
2023-02-27T07:17:29.702Z,3.47
2023-02-27T07:20:33.515Z,3.20
2023-02-27T07:23:39.100Z,3.50
2023-02-27T07:26:43.213Z,3.30
2023-02-27T07:29:46.993Z,3.50
2023-02-27T07:32:50.948Z,3.50
2023-02-27T07:35:54.989Z,3.10
2023-02-27T07:39:00.470Z,2.63
2023-02-27T07:42:04.260Z,3.40
2023-02-27T07:45:11.337Z,4.00
2023-02-27T07:48:15.165Z,3.53
2023-02-27T07:51:19.105Z,3.40
2023-02-27T07:54:24.577Z,5.00
2023-02-27T07:57:28.395Z,5.60
2023-02-27T08:00:32.649Z,5.17
2023-02-27T08:03:36.461Z,3.90
2023-02-27T08:06:40.209Z,3.97
2023-02-27T08:09:45.555Z,3.63
2023-02-27T08:12:49.446Z,4.80
2023-02-27T08:15:54.467Z,3.70
2023-02-27T08:18:58.383Z,3.40
2023-02-27T08:22:02.132Z,3.30
2023-02-27T08:25:11.355Z,2.80
2023-02-27T08:28:15.645Z,3.27
2023-02-27T08:31:19.563Z,3.47
2023-02-27T08:34:23.307Z,3.47
2023-02-27T08:37:27.504Z,3.57
2023-02-27T08:40:32.746Z,3.40
2023-02-27T08:43:36.515Z,3.40
2023-02-27T08:46:40.370Z,2.83
2023-02-27T08:49:44.205Z,3.60
2023-02-27T08:52:47.893Z,3.30
2023-02-27T08:55:53.897Z,3.20
2023-02-27T08:58:58.043Z,3.40
2023-02-27T09:02:01.883Z,3.53
2023-02-27T09:05:06.121Z,4.10
2023-02-27T09:08:09.969Z,3.80
2023-02-27T09:11:15.313Z,3.87
2023-02-27T09:14:19.179Z,3.93
2023-02-27T09:17:23.138Z,5.00
2023-02-27T09:20:26.926Z,4.63
2023-02-27T09:23:30.788Z,4.27
2023-02-27T09:26:45.219Z,4.77
2023-02-27T09:29:55.610Z,3.53
2023-02-27T09:32:59.425Z,4.70
2023-02-27T09:36:03.278Z,4.20
2023-02-27T09:39:09.933Z,3.53
2023-02-27T09:42:20.671Z,3.70
2023-02-27T09:45:26.566Z,3.90
2023-02-27T09:48:33.931Z,4.13
2023-02-27T09:51:37.732Z,4.33
2023-02-27T09:54:44.313Z,4.07
2023-02-27T09:57:56.664Z,4.20
2023-02-27T10:01:06.526Z,4.93
2023-02-27T10:04:29.473Z,4.13
2023-02-27T10:07:40.162Z,3.83
2023-02-27T10:10:51.188Z,3.23
2023-02-27T10:14:04.567Z,3.60
2023-02-27T10:17:17.587Z,3.33
2023-02-27T10:20:27.278Z,3.30
2023-02-27T10:23:37.882Z,3.90
2023-02-27T10:26:44.418Z,3.33
2023-02-27T10:29:50.364Z,3.80
2023-02-27T10:32:59.549Z,3.23
2023-02-27T10:36:04.498Z,3.03
2023-02-27T10:39:12.122Z,3.90
2023-02-27T10:42:18.419Z,3.15
2023-02-27T10:45:23.736Z,3.60
2023-02-27T10:48:27.573Z,3.47
2023-02-27T10:51:35.176Z,4.03
2023-02-27T10:54:39.357Z,3.30
2023-02-27T10:57:44.563Z,3.80
2023-02-27T11:00:56.448Z,3.28
2023-02-27T11:04:00.472Z,3.50
2023-02-27T11:07:07.309Z,4.03
2023-02-27T11:10:20.093Z,3.90
2023-02-27T11:13:26.372Z,3.40
2023-02-27T11:16:47.678Z,4.05
2023-02-27T11:19:51.621Z,3.25
2023-02-27T11:23:04.936Z,4.00
2023-02-27T11:26:17.243Z,4.03
2023-02-27T11:29:22.537Z,4.10
2023-02-27T11:32:31.773Z,4.40
2023-02-27T11:35:38.730Z,3.72
2023-02-27T11:38:42.641Z,3.10
2023-02-27T11:41:46.449Z,3.95
2023-02-27T11:44:56.503Z,3.30
2023-02-27T11:48:09.504Z,3.38
2023-02-27T11:51:26.617Z,3.08
2023-02-27T11:54:38.247Z,3.40
2023-02-27T11:57:46.475Z,3.63
2023-02-27T12:00:53.999Z,4.05
2023-02-27T12:04:04.640Z,4.00
2023-02-27T12:07:18.256Z,3.50
2023-02-27T12:10:24.069Z,3.22
2023-02-27T12:13:32.118Z,3.63
2023-02-27T12:16:42.511Z,4.75
2023-02-27T12:20:10.055Z,3.53
2023-02-27T12:23:22.102Z,4.13
2023-02-27T12:26:31.272Z,7.20
2023-02-27T12:29:39.792Z,5.13
2023-02-27T12:32:49.162Z,4.55
2023-02-27T12:35:59.695Z,4.05
2023-02-27T12:39:04.682Z,3.97
2023-02-27T12:42:33.845Z,4.13
2023-02-27T12:46:01.024Z,4.90
2023-02-27T12:49:17.519Z,4.45
2023-02-27T12:52:31.319Z,4.30
2023-02-27T12:55:41.643Z,3.90
2023-02-27T12:58:56.040Z,4.25
2023-02-27T13:02:17.691Z,5.25
2023-02-27T13:05:53.641Z,5.87
2023-02-27T13:09:13.256Z,5.35
2023-02-27T13:12:30.966Z,5.32
2023-02-27T13:15:42.806Z,4.90
2023-02-27T13:18:52.729Z,5.27
2023-02-27T13:21:59.399Z,5.10
2023-02-27T13:25:12.455Z,4.73
2023-02-27T13:28:21.096Z,5.33
2023-02-27T13:31:34.322Z,4.50
2023-02-27T13:34:43.156Z,5.67
2023-02-27T13:37:55.424Z,4.87
2023-02-27T13:41:40.037Z,5.07
2023-02-27T13:44:43.810Z,5.33
2023-02-27T13:47:51.217Z,4.85
2023-02-27T13:50:55.041Z,5.28
2023-02-27T13:54:16.634Z,5.90
2023-02-27T13:57:29.397Z,4.50
2023-02-27T14:00:35.244Z,5.60
2023-02-27T14:03:41.750Z,5.03
2023-02-27T14:06:47.695Z,6.00
2023-02-27T14:09:54.498Z,5.45
2023-02-27T14:13:00.989Z,5.50
2023-02-27T14:16:04.941Z,5.63
2023-02-27T14:19:50.838Z,4.80
2023-02-27T14:23:20.760Z,5.23
2023-02-27T14:26:26.783Z,4.97
2023-02-27T14:29:35.084Z,5.23
2023-02-27T14:32:40.127Z,5.53
2023-02-27T14:35:47.834Z,5.20
2023-02-27T14:38:54.539Z,6.17
2023-02-27T14:42:18.154Z,5.43
2023-02-27T14:45:25.342Z,6.20
2023-02-27T14:48:30.275Z,4.40
2023-02-27T14:51:36.184Z,5.83
2023-02-27T14:54:40.067Z,5.87
2023-02-27T14:57:55.475Z,5.57
2023-02-27T15:01:04.802Z,5.70
2023-02-27T15:04:09.031Z,6.27
2023-02-27T15:07:24.845Z,4.97
2023-02-27T15:10:33.564Z,4.63
2023-02-27T15:13:40.780Z,5.63
2023-02-27T15:16:46.139Z,6.27
2023-02-27T15:19:52.706Z,5.73
2023-02-27T15:22:56.911Z,6.07
2023-02-27T15:26:01.999Z,5.60
2023-02-27T15:29:07.850Z,6.40
2023-02-27T15:32:20.873Z,5.70
2023-02-27T15:35:27.109Z,6.00
2023-02-27T15:38:32.613Z,6.13
2023-02-27T15:41:37.200Z,6.80
2023-02-27T15:44:44.450Z,7.40
2023-02-27T15:47:50.349Z,7.97
2023-02-27T15:50:56.070Z,8.00
2023-02-27T15:54:01.912Z,7.67
2023-02-27T15:57:07.905Z,7.80
2023-02-27T16:00:15.546Z,7.37
2023-02-27T16:03:25.281Z,9.33
2023-02-27T16:06:32.635Z,8.20
2023-02-27T16:09:38.795Z,9.27
2023-02-27T16:12:43.182Z,8.57
2023-02-27T16:15:46.994Z,9.53
2023-02-27T16:18:53.711Z,9.80
2023-02-27T16:22:14.169Z,9.50
2023-02-27T16:25:20.650Z,10.03
2023-02-27T16:28:24.452Z,10.83
2023-02-27T16:31:31.768Z,11.43
2023-02-27T16:34:47.604Z,11.07
2023-02-27T16:37:53.784Z,11.60
2023-02-27T16:40:57.674Z,12.27
2023-02-27T16:44:01.536Z,9.00
2023-02-27T16:47:05.404Z,9.37
2023-02-27T16:50:18.151Z,9.37
2023-02-27T16:53:21.824Z,7.73
2023-02-27T16:56:37.822Z,7.80
2023-02-27T16:59:44.301Z,8.37
2023-02-27T17:02:48.508Z,7.17
2023-02-27T17:05:55.453Z,6.93
2023-02-27T17:08:59.262Z,5.53
2023-02-27T17:12:03.151Z,5.20
2023-02-27T17:15:08.063Z,5.57
2023-02-27T17:18:11.845Z,5.00
2023-02-27T17:21:17.039Z,4.43
2023-02-27T17:24:20.804Z,5.10
2023-02-27T17:27:24.634Z,5.10
2023-02-27T17:30:28.550Z,4.93
2023-02-27T17:33:33.391Z,5.10
2023-02-27T17:36:39.605Z,5.70
2023-02-27T17:39:43.532Z,5.87
2023-02-27T17:42:47.270Z,6.40
2023-02-27T17:45:50.972Z,5.30
2023-02-27T17:48:56.442Z,6.43
2023-02-27T17:52:01.607Z,5.67
2023-02-27T17:55:06.162Z,5.53
2023-02-27T17:58:10.096Z,6.50
2023-02-27T18:01:17.242Z,6.90
2023-02-27T18:04:21.006Z,6.67
2023-02-27T18:07:26.410Z,7.13
2023-02-27T18:10:30.173Z,7.90
2023-02-27T18:13:33.911Z,7.00
2023-02-27T18:16:37.728Z,12.07
2023-02-27T18:19:41.939Z,13.00
2023-02-27T18:22:47.224Z,11.73
2023-02-27T18:25:55.626Z,10.87
2023-02-27T18:29:00.620Z,13.30
2023-02-27T18:32:04.787Z,11.17
2023-02-27T18:35:09.497Z,9.43
2023-02-27T18:38:14.745Z,8.53
2023-02-27T18:41:18.759Z,11.03
2023-02-27T18:44:22.566Z,8.80
2023-02-27T18:47:30.285Z,6.70
2023-02-27T18:50:34.675Z,5.87
2023-02-27T18:53:40.454Z,6.97
2023-02-27T18:56:44.313Z,7.97
2023-02-27T18:59:48.241Z,8.17
2023-02-27T19:02:52.213Z,7.00
2023-02-27T19:05:56.035Z,7.83
2023-02-27T19:09:01.453Z,7.30
2023-02-27T19:12:05.829Z,7.23
2023-02-27T19:15:12.202Z,9.10
2023-02-27T19:18:15.976Z,10.93
2023-02-27T19:21:20.385Z,8.37
2023-02-27T19:24:25.628Z,8.03
2023-02-27T19:27:29.545Z,8.93
2023-02-27T19:30:33.389Z,8.13
2023-02-27T19:33:37.617Z,8.10
2023-02-27T19:36:41.785Z,8.30
2023-02-27T19:39:47.095Z,8.00
2023-02-27T19:42:51.064Z,8.27
2023-02-27T19:45:54.806Z,7.07
2023-02-27T19:49:00.600Z,7.87
2023-02-27T19:52:04.575Z,8.57
2023-02-27T19:55:10.700Z,8.27
2023-02-27T19:58:14.452Z,7.10
2023-02-27T20:01:24.567Z,7.27
2023-02-27T20:04:28.690Z,6.57
2023-02-27T20:07:32.576Z,5.50
2023-02-27T20:10:37.893Z,6.10
2023-02-27T20:13:41.827Z,5.93
2023-02-27T20:16:45.797Z,5.37
2023-02-27T20:19:49.632Z,5.43
2023-02-27T20:22:53.721Z,9.43
2023-02-27T20:25:59.159Z,8.57
2023-02-27T20:29:05.521Z,8.70
2023-02-27T20:32:10.137Z,8.00
2023-02-27T20:35:14.534Z,7.63
2023-02-27T20:38:20.219Z,7.30
2023-02-27T20:41:29.361Z,6.50
2023-02-27T20:44:33.653Z,6.30
2023-02-27T20:47:37.424Z,6.40
2023-02-27T20:50:41.276Z,6.27
2023-02-27T20:53:47.595Z,7.90
2023-02-27T20:56:54.721Z,7.27
2023-02-27T20:59:58.587Z,6.37
2023-02-27T21:03:03.727Z,6.53
2023-02-27T21:06:08.747Z,6.70
2023-02-27T21:09:12.566Z,6.93
2023-02-27T21:12:18.400Z,7.87
2023-02-27T21:15:22.111Z,6.93
2023-02-27T21:18:25.917Z,6.53
2023-02-27T21:21:32.403Z,12.93
2023-02-27T21:24:36.197Z,12.53
2023-02-27T21:27:41.337Z,6.73
2023-02-27T21:30:45.206Z,7.03
2023-02-27T21:33:49.745Z,6.77
2023-02-27T21:36:54.426Z,7.03
2023-02-27T21:39:58.284Z,7.33
2023-02-27T21:43:03.651Z,7.70
2023-02-27T21:46:08.148Z,6.80
2023-02-27T21:49:17.641Z,6.70
2023-02-27T21:52:21.954Z,6.43
2023-02-27T21:55:25.716Z,6.60
2023-02-27T21:58:31.014Z,7.37
2023-02-27T22:01:35.469Z,7.47
2023-02-27T22:04:39.342Z,7.10
2023-02-27T22:07:43.189Z,7.10
2023-02-27T22:10:47.271Z,6.67
2023-02-27T22:13:52.440Z,6.97
2023-02-27T22:16:56.214Z,9.90
2023-02-27T22:20:00.065Z,8.30
2023-02-27T22:23:05.024Z,8.63
2023-02-27T22:26:10.299Z,8.57
2023-02-27T22:29:15.761Z,8.80
2023-02-27T22:32:19.989Z,8.70
2023-02-27T22:35:24.795Z,8.40
2023-02-27T22:38:28.591Z,8.93
2023-02-27T22:41:34.520Z,8.83
2023-02-27T22:44:39.752Z,8.90
2023-02-27T22:47:43.526Z,8.57
2023-02-27T22:50:47.363Z,8.77
2023-02-27T22:53:51.255Z,9.13
2023-02-27T22:56:57.923Z,8.47
2023-02-27T23:00:06.072Z,9.37
2023-02-27T23:03:09.813Z,8.40
2023-02-27T23:06:15.812Z,9.40
2023-02-27T23:09:21.965Z,9.37
2023-02-27T23:12:27.415Z,9.27
2023-02-27T23:15:33.154Z,8.73
2023-02-27T23:18:36.775Z,8.47
2023-02-27T23:21:40.493Z,9.30
2023-02-27T23:24:44.306Z,9.07
2023-02-27T23:27:48.170Z,10.03
2023-02-27T23:30:53.398Z,9.70
2023-02-27T23:33:57.585Z,8.23
2023-02-27T23:37:01.653Z,8.10
2023-02-27T23:40:06.911Z,8.23
2023-02-27T23:43:28.117Z,7.90
2023-02-27T23:46:33.596Z,7.77
2023-02-27T23:49:37.445Z,8.10
2023-02-27T23:52:41.256Z,7.60
2023-02-27T23:55:45.185Z,8.40
2023-02-27T23:58:50.051Z,7.43
